sensor_id;sensor_type;location;lat;lon;timestamp;pressure;altitude;pressure_sealevel;temperature;humidity
20424;BME280;10371;49.042;8.002;2023-03-20T00:00:55;100146.94;;;9.74;100.00
20424;BME280;10371;49.042;8.002;2023-03-20T00:01:56;100148.56;;;9.75;100.00
20424;BME280;10371;49.042;8.002;2023-03-20T00:02:57;100157.94;;;9.77;100.00
20424;BME280;10371;49.042;8.002;2023-03-20T00:03:57;100150.84;;;9.79;100.00
20424;BME280;10371;49.042;8.002;2023-03-20T00:04:58;100150.03;;;9.79;100.00
20424;BME280;10371;49.042;8.002;2023-03-20T00:05:58;100151.69;;;9.80;100.00
20424;BME280;10371;49.042;8.002;2023-03-20T00:06:58;100151.81;;;9.78;100.00
20424;BME280;10371;49.042;8.002;2023-03-20T00:07:59;100150.84;;;9.79;100.00
20424;BME280;10371;49.042;8.002;2023-03-20T00:08:59;100155.09;;;9.80;100.00
20424;BME280;10371;49.042;8.002;2023-03-20T00:10:01;100153.38;;;9.81;100.00
20424;BME280;10371;49.042;8.002;2023-03-20T00:11:01;100152.50;;;9.80;100.00
20424;BME280;10371;49.042;8.002;2023-03-20T00:12:02;100151.47;;;9.83;100.00
20424;BME280;10371;49.042;8.002;2023-03-20T00:13:03;100152.31;;;9.83;100.00
20424;BME280;10371;49.042;8.002;2023-03-20T00:14:07;100157.72;;;9.80;100.00
20424;BME280;10371;49.042;8.002;2023-03-20T00:15:37;100150.13;;;9.77;100.00
20424;BME280;10371;49.042;8.002;2023-03-20T00:16:41;100155.31;;;9.77;100.00
20424;BME280;10371;49.042;8.002;2023-03-20T00:17:41;100151.81;;;9.78;100.00
20424;BME280;10371;49.042;8.002;2023-03-20T00:18:42;100149.22;;;9.78;100.00
20424;BME280;10371;49.042;8.002;2023-03-20T00:19:42;100148.38;;;9.78;100.00
20424;BME280;10371;49.042;8.002;2023-03-20T00:20:44;100152.03;;;9.75;100.00
20424;BME280;10371;49.042;8.002;2023-03-20T00:21:45;100152.13;;;9.74;100.00
20424;BME280;10371;49.042;8.002;2023-03-20T00:22:47;100152.84;;;9.76;100.00
20424;BME280;10371;49.042;8.002;2023-03-20T00:23:47;100152.72;;;9.77;100.00
20424;BME280;10371;49.042;8.002;2023-03-20T00:24:48;100155.91;;;9.70;100.00
20424;BME280;10371;49.042;8.002;2023-03-20T00:25:48;100149.84;;;9.69;100.00
20424;BME280;10371;49.042;8.002;2023-03-20T00:26:50;100157.47;;;9.72;100.00
20424;BME280;10371;49.042;8.002;2023-03-20T00:27:51;100155.56;;;9.74;100.00
20424;BME280;10371;49.042;8.002;2023-03-20T00:28:51;100155.56;;;9.74;100.00
20424;BME280;10371;49.042;8.002;2023-03-20T00:29:51;100152.94;;;9.74;100.00
20424;BME280;10371;49.042;8.002;2023-03-20T00:30:52;100154.00;;;9.72;100.00
20424;BME280;10371;49.042;8.002;2023-03-20T00:31:52;100161.47;;;9.76;100.00
20424;BME280;10371;49.042;8.002;2023-03-20T00:32:56;100156.28;;;9.76;100.00
20424;BME280;10371;49.042;8.002;2023-03-20T00:33:58;100160.66;;;9.76;100.00
20424;BME280;10371;49.042;8.002;2023-03-20T00:34:59;100159.84;;;9.75;100.00
20424;BME280;10371;49.042;8.002;2023-03-20T00:36:00;100163.13;;;9.77;100.00
20424;BME280;10371;49.042;8.002;2023-03-20T00:37:00;100162.53;;;9.74;100.00
20424;BME280;10371;49.042;8.002;2023-03-20T00:38:00;100162.53;;;9.74;100.00
20424;BME280;10371;49.042;8.002;2023-03-20T00:39:01;100162.75;;;9.71;100.00
20424;BME280;10371;49.042;8.002;2023-03-20T00:40:02;100171.28;;;9.73;100.00
20424;BME280;10371;49.042;8.002;2023-03-20T00:41:21;100166.91;;;9.73;100.00
20424;BME280;10371;49.042;8.002;2023-03-20T00:42:22;100169.50;;;9.73;100.00
20424;BME280;10371;49.042;8.002;2023-03-20T00:43:23;100164.19;;;9.75;100.00
20424;BME280;10371;49.042;8.002;2023-03-20T00:44:31;100162.53;;;9.74;100.00
20424;BME280;10371;49.042;8.002;2023-03-20T00:45:34;100163.56;;;9.71;100.00
20424;BME280;10371;49.042;8.002;2023-03-20T00:46:37;100166.91;;;9.73;100.00
20424;BME280;10371;49.042;8.002;2023-03-20T00:47:38;100165.03;;;9.75;100.00
20424;BME280;10371;49.042;8.002;2023-03-20T00:48:41;100158.38;;;9.71;100.00
20424;BME280;10371;49.042;8.002;2023-03-20T00:49:42;100156.59;;;9.72;100.00
20424;BME280;10371;49.042;8.002;2023-03-20T00:50:44;100161.56;;;9.75;100.00
20424;BME280;10371;49.042;8.002;2023-03-20T00:51:45;100160.53;;;9.77;100.00
20424;BME280;10371;49.042;8.002;2023-03-20T00:52:46;100161.47;;;9.76;100.00
20424;BME280;10371;49.042;8.002;2023-03-20T00:53:46;100167.50;;;9.77;100.00
20424;BME280;10371;49.042;8.002;2023-03-20T00:54:47;100170.00;;;9.78;100.00
20424;BME280;10371;49.042;8.002;2023-03-20T00:55:47;100163.13;;;9.77;100.00
20424;BME280;10371;49.042;8.002;2023-03-20T00:57:02;100166.69;;;9.76;100.00
20424;BME280;10371;49.042;8.002;2023-03-20T00:58:03;100160.53;;;9.77;100.00
20424;BME280;10371;49.042;8.002;2023-03-20T00:59:04;100162.22;;;9.78;100.00
20424;BME280;10371;49.042;8.002;2023-03-20T01:00:11;100164.81;;;9.78;100.00
20424;BME280;10371;49.042;8.002;2023-03-20T01:01:16;100164.81;;;9.78;100.00
20424;BME280;10371;49.042;8.002;2023-03-20T01:02:26;100166.47;;;9.79;100.00
20424;BME280;10371;49.042;8.002;2023-03-20T01:03:27;100165.63;;;9.79;100.00
20424;BME280;10371;49.042;8.002;2023-03-20T01:04:39;100170.94;;;9.77;100.00
20424;BME280;10371;49.042;8.002;2023-03-20T01:05:41;100170.09;;;9.77;100.00
20424;BME280;10371;49.042;8.002;2023-03-20T01:06:43;100167.41;;;9.78;100.00
20424;BME280;10371;49.042;8.002;2023-03-20T01:07:43;100165.63;;;9.79;100.00
20424;BME280;10371;49.042;8.002;2023-03-20T01:08:44;100160.53;;;9.77;100.00
20424;BME280;10371;49.042;8.002;2023-03-20T01:09:45;100158.88;;;9.76;100.00
20424;BME280;10371;49.042;8.002;2023-03-20T01:10:48;100160.53;;;9.77;100.00
20424;BME280;10371;49.042;8.002;2023-03-20T01:11:49;100157.94;;;9.77;100.00
20424;BME280;10371;49.042;8.002;2023-03-20T01:12:50;100161.47;;;9.76;100.00
20424;BME280;10371;49.042;8.002;2023-03-20T01:13:50;100162.22;;;9.78;100.00
20424;BME280;10371;49.042;8.002;2023-03-20T01:14:54;100164.81;;;9.78;100.00
20424;BME280;10371;49.042;8.002;2023-03-20T01:15:56;100158.88;;;9.76;100.00
20424;BME280;10371;49.042;8.002;2023-03-20T01:16:57;100158.78;;;9.78;100.00
20424;BME280;10371;49.042;8.002;2023-03-20T01:17:57;100157.94;;;9.77;100.00
20424;BME280;10371;49.042;8.002;2023-03-20T01:18:57;100164.09;;;9.76;100.00
20424;BME280;10371;49.042;8.002;2023-03-20T01:19:57;100149.66;;;9.72;100.00
20424;BME280;10371;49.042;8.002;2023-03-20T01:20:58;100161.47;;;9.76;100.00
20424;BME280;10371;49.042;8.002;2023-03-20T01:21:58;100163.13;;;9.77;100.00
20424;BME280;10371;49.042;8.002;2023-03-20T01:22:59;100153.59;;;9.78;100.00
20424;BME280;10371;49.042;8.002;2023-03-20T01:23:59;100150.84;;;9.79;100.00
20424;BME280;10371;49.042;8.002;2023-03-20T01:24:59;100163.84;;;9.79;100.00
20424;BME280;10371;49.042;8.002;2023-03-20T01:26:01;100159.59;;;9.78;100.00
20424;BME280;10371;49.042;8.002;2023-03-20T01:27:02;100168.34;;;9.77;100.00
20424;BME280;10371;49.042;8.002;2023-03-20T01:28:21;100164.47;;;9.59;100.00
20424;BME280;10371;49.042;8.002;2023-03-20T01:29:24;100165.38;;;9.58;100.00
20424;BME280;10371;49.042;8.002;2023-03-20T01:30:30;100163.41;;;9.61;100.00
20424;BME280;10371;49.042;8.002;2023-03-20T01:31:30;100170.16;;;9.64;100.00
20424;BME280;10371;49.042;8.002;2023-03-20T01:32:31;100166.84;;;9.62;100.00
20424;BME280;10371;49.042;8.002;2023-03-20T01:33:31;100172.97;;;9.61;100.00
20424;BME280;10371;49.042;8.002;2023-03-20T01:34:31;100167.97;;;9.58;100.00
20424;BME280;10371;49.042;8.002;2023-03-20T01:35:31;100169.53;;;9.60;100.00
20424;BME280;10371;49.042;8.002;2023-03-20T01:36:32;100165.06;;;9.62;100.00
20424;BME280;10371;49.042;8.002;2023-03-20T01:37:32;100168.63;;;9.61;100.00
20424;BME280;10371;49.042;8.002;2023-03-20T01:38:32;100164.25;;;9.62;100.00
20424;BME280;10371;49.042;8.002;2023-03-20T01:39:34;100171.91;;;9.63;100.00
20424;BME280;10371;49.042;8.002;2023-03-20T01:40:59;100163.41;;;9.61;100.00
20424;BME280;10371;49.042;8.002;2023-03-20T01:42:01;100164.25;;;9.62;100.00
20424;BME280;10371;49.042;8.002;2023-03-20T01:43:02;100168.63;;;9.61;100.00
20424;BME280;10371;49.042;8.002;2023-03-20T01:44:16;100166.94;;;9.60;100.00
20424;BME280;10371;49.042;8.002;2023-03-20T01:45:19;100170.34;;;9.61;100.00
20424;BME280;10371;49.042;8.002;2023-03-20T01:46:26;100171.44;;;9.58;100.00
20424;BME280;10371;49.042;8.002;2023-03-20T01:47:27;100177.56;;;9.57;100.00
20424;BME280;10371;49.042;8.002;2023-03-20T01:51:13;100177.56;;;9.57;100.00
20424;BME280;10371;49.042;8.002;2023-03-20T01:52:13;100172.25;;;9.59;100.00
20424;BME280;10371;49.042;8.002;2023-03-20T01:53:21;100173.19;;;9.58;100.00
20424;BME280;10371;49.042;8.002;2023-03-20T01:54:23;100174.94;;;9.57;100.00
20424;BME280;10371;49.042;8.002;2023-03-20T01:55:25;100179.31;;;9.57;100.00
20424;BME280;10371;49.042;8.002;2023-03-20T01:56:27;100172.13;;;9.60;100.00
20424;BME280;10371;49.042;8.002;2023-03-20T01:57:30;100171.22;;;9.61;100.00
20424;BME280;10371;49.042;8.002;2023-03-20T01:58:34;100172.25;;;9.59;100.00
20424;BME280;10371;49.042;8.002;2023-03-20T01:59:44;100168.84;;;9.58;100.00
20424;BME280;10371;49.042;8.002;2023-03-20T02:00:46;100168.84;;;9.58;100.00
20424;BME280;10371;49.042;8.002;2023-03-20T02:01:48;100174.34;;;9.54;100.00
20424;BME280;10371;49.042;8.002;2023-03-20T02:02:48;100165.59;;;9.55;100.00
20424;BME280;10371;49.042;8.002;2023-03-20T02:03:49;100179.31;;;9.57;100.00
20424;BME280;10371;49.042;8.002;2023-03-20T02:04:53;100179.31;;;9.57;100.00
20424;BME280;10371;49.042;8.002;2023-03-20T02:05:56;100180.16;;;9.57;100.00
20424;BME280;10371;49.042;8.002;2023-03-20T02:06:56;100173.41;;;9.55;100.00
20424;BME280;10371;49.042;8.002;2023-03-20T02:08:23;100181.19;;;9.55;100.00
20424;BME280;10371;49.042;8.002;2023-03-20T02:09:25;100174.44;;;9.52;100.00
20424;BME280;10371;49.042;8.002;2023-03-20T02:10:25;100177.78;;;9.54;100.00
20424;BME280;10371;49.042;8.002;2023-03-20T02:11:25;100174.94;;;9.57;100.00
20424;BME280;10371;49.042;8.002;2023-03-20T02:12:26;100176.00;;;9.55;100.00
20424;BME280;10371;49.042;8.002;2023-03-20T02:13:28;100178.72;;;9.53;100.00
20424;BME280;10371;49.042;8.002;2023-03-20T02:14:31;100173.41;;;9.55;100.00
20424;BME280;10371;49.042;8.002;2023-03-20T02:15:32;100180.28;;;9.56;100.00
20424;BME280;10371;49.042;8.002;2023-03-20T02:16:33;100178.59;;;9.55;100.00
20424;BME280;10371;49.042;8.002;2023-03-20T02:17:33;100189.94;;;9.54;100.00
20424;BME280;10371;49.042;8.002;2023-03-20T02:18:34;100187.44;;;9.52;100.00
20424;BME280;10371;49.042;8.002;2023-03-20T02:20:48;100189.22;;;9.52;100.00
20424;BME280;10371;49.042;8.002;2023-03-20T02:23:40;100190.25;;;9.49;100.00
20424;BME280;10371;49.042;8.002;2023-03-20T02:26:22;100194.41;;;9.52;100.00
20424;BME280;10371;49.042;8.002;2023-03-20T02:31:09;100192.84;;;9.49;100.00
20424;BME280;10371;49.042;8.002;2023-03-20T02:37:45;100192.47;;;9.43;100.00
20424;BME280;10371;49.042;8.002;2023-03-20T02:39:14;100193.38;;;9.42;100.00
20424;BME280;10371;49.042;8.002;2023-03-20T02:41:32;100200.47;;;9.39;100.00
20424;BME280;10371;49.042;8.002;2023-03-20T02:43:02;100185.81;;;9.38;100.00
20424;BME280;10371;49.042;8.002;2023-03-20T02:44:08;100194.34;;;9.40;100.00
20424;BME280;10371;49.042;8.002;2023-03-20T02:45:15;100196.09;;;9.40;100.00
20424;BME280;10371;49.042;8.002;2023-03-20T02:46:25;100191.72;;;9.40;100.00
20424;BME280;10371;49.042;8.002;2023-03-20T02:47:35;100197.06;;;9.39;100.00
20424;BME280;10371;49.042;8.002;2023-03-20T02:49:02;100197.88;;;9.39;100.00
20424;BME280;10371;49.042;8.002;2023-03-20T02:50:13;100192.78;;;9.38;100.00
20424;BME280;10371;49.042;8.002;2023-03-20T02:51:33;100195.28;;;9.39;100.00
20424;BME280;10371;49.042;8.002;2023-03-20T02:53:25;100191.84;;;9.39;100.00
20424;BME280;10371;49.042;8.002;2023-03-20T02:56:56;100191.94;;;9.37;100.00
20424;BME280;10371;49.042;8.002;2023-03-20T02:58:11;100192.78;;;9.38;100.00
20424;BME280;10371;49.042;8.002;2023-03-20T02:59:39;100190.53;;;9.33;100.00
20424;BME280;10371;49.042;8.002;2023-03-20T03:00:48;100191.94;;;9.37;100.00
20424;BME280;10371;49.042;8.002;2023-03-20T03:01:55;100191.94;;;9.37;100.00
20424;BME280;10371;49.042;8.002;2023-03-20T03:03:08;100195.28;;;9.39;100.00
20424;BME280;10371;49.042;8.002;2023-03-20T03:04:15;100195.28;;;9.39;100.00
20424;BME280;10371;49.042;8.002;2023-03-20T03:05:23;100188.19;;;9.42;100.00
20424;BME280;10371;49.042;8.002;2023-03-20T03:06:31;100189.97;;;9.41;100.00
20424;BME280;10371;49.042;8.002;2023-03-20T03:07:34;100189.88;;;9.43;100.00
20424;BME280;10371;49.042;8.002;2023-03-20T03:08:39;100196.72;;;9.44;100.00
20424;BME280;10371;49.042;8.002;2023-03-20T03:09:48;100198.41;;;9.45;100.00
20424;BME280;10371;49.042;8.002;2023-03-20T03:11:04;100197.53;;;9.44;100.00
20424;BME280;10371;49.042;8.002;2023-03-20T03:12:15;100193.19;;;9.45;100.00
20424;BME280;10371;49.042;8.002;2023-03-20T03:13:20;100198.41;;;9.45;100.00
20424;BME280;10371;49.042;8.002;2023-03-20T03:14:33;100197.34;;;9.47;100.00
20424;BME280;10371;49.042;8.002;2023-03-20T03:15:40;100198.19;;;9.48;100.00
20424;BME280;10371;49.042;8.002;2023-03-20T03:16:42;100193.91;;;9.47;100.00
20424;BME280;10371;49.042;8.002;2023-03-20T03:17:46;100199.72;;;9.50;100.00
20424;BME280;10371;49.042;8.002;2023-03-20T03:18:51;100198.88;;;9.50;100.00
20424;BME280;10371;49.042;8.002;2023-03-20T03:19:57;100202.44;;;9.49;100.00
20424;BME280;10371;49.042;8.002;2023-03-20T03:21:01;100203.38;;;9.48;100.00
20424;BME280;10371;49.042;8.002;2023-03-20T03:22:03;100200.03;;;9.46;100.00
20424;BME280;10371;49.042;8.002;2023-03-20T03:23:05;100203.16;;;9.51;100.00
20424;BME280;10371;49.042;8.002;2023-03-20T03:24:20;100203.16;;;9.51;100.00
20424;BME280;10371;49.042;8.002;2023-03-20T03:25:25;100195.38;;;9.51;100.00
20424;BME280;10371;49.042;8.002;2023-03-20T03:26:30;100193.38;;;9.54;100.00
20424;BME280;10371;49.042;8.002;2023-03-20T03:27:37;100191.59;;;9.55;100.00
20424;BME280;10371;49.042;8.002;2023-03-20T03:28:42;100194.91;;;9.57;100.00
20424;BME280;10371;49.042;8.002;2023-03-20T03:29:48;100196.69;;;9.56;100.00
20424;BME280;10371;49.042;8.002;2023-03-20T03:30:50;100197.44;;;9.58;100.00
20424;BME280;10371;49.042;8.002;2023-03-20T03:31:53;100196.69;;;9.56;100.00
20424;BME280;10371;49.042;8.002;2023-03-20T03:33:18;100183.47;;;9.59;100.00
20424;BME280;10371;49.042;8.002;2023-03-20T03:34:20;100190.34;;;9.60;100.00
20424;BME280;10371;49.042;8.002;2023-03-20T03:35:21;100180.75;;;9.61;100.00
20424;BME280;10371;49.042;8.002;2023-03-20T03:40:16;100177.69;;;9.56;100.00
20424;BME280;10371;49.042;8.002;2023-03-20T03:41:46;100183.56;;;9.58;100.00
20424;BME280;10371;49.042;8.002;2023-03-20T03:44:05;100185.47;;;9.56;100.00
20424;BME280;10371;49.042;8.002;2023-03-20T03:45:31;100183.78;;;9.55;100.00
20424;BME280;10371;49.042;8.002;2023-03-20T03:46:43;100188.06;;;9.56;100.00
20424;BME280;10371;49.042;8.002;2023-03-20T03:47:49;100181.31;;;9.53;100.00
20424;BME280;10371;49.042;8.002;2023-03-20T03:48:55;100185.34;;;9.57;100.00
20424;BME280;10371;49.042;8.002;2023-03-20T03:50:01;100182.88;;;9.56;100.00
20424;BME280;10371;49.042;8.002;2023-03-20T03:51:10;100185.47;;;9.56;100.00
20424;BME280;10371;49.042;8.002;2023-03-20T03:52:16;100188.78;;;9.58;100.00
20424;BME280;10371;49.042;8.002;2023-03-20T03:53:35;100188.56;;;9.61;100.00
20424;BME280;10371;49.042;8.002;2023-03-20T03:54:49;100189.41;;;9.61;100.00
20424;BME280;10371;49.042;8.002;2023-03-20T03:55:56;100194.63;;;9.61;100.00
20424;BME280;10371;49.042;8.002;2023-03-20T03:57:00;100190.34;;;9.60;100.00
20424;BME280;10371;49.042;8.002;2023-03-20T03:58:04;100208.31;;;9.63;100.00
20424;BME280;10371;49.042;8.002;2023-03-20T03:59:12;100198.75;;;9.64;100.00
20424;BME280;10371;49.042;8.002;2023-03-20T04:00:18;100195.22;;;9.65;100.00
20424;BME280;10371;49.042;8.002;2023-03-20T04:01:20;100196.03;;;9.66;100.00
20424;BME280;10371;49.042;8.002;2023-03-20T04:02:22;100200.28;;;9.67;100.00
20424;BME280;10371;49.042;8.002;2023-03-20T04:03:27;100193.56;;;9.64;100.00
20424;BME280;10371;49.042;8.002;2023-03-20T04:04:31;100195.44;;;9.62;100.00
20424;BME280;10371;49.042;8.002;2023-03-20T04:05:35;100205.84;;;9.62;100.00
20424;BME280;10371;49.042;8.002;2023-03-20T04:06:37;100215.19;;;9.65;100.00
20424;BME280;10371;49.042;8.002;2023-03-20T04:07:37;100213.41;;;9.65;100.00
20424;BME280;10371;49.042;8.002;2023-03-20T04:08:42;100217.78;;;9.65;100.00
20424;BME280;10371;49.042;8.002;2023-03-20T04:09:42;100219.22;;;9.69;100.00
20424;BME280;10371;49.042;8.002;2023-03-20T04:10:42;100214.84;;;9.69;100.00
20424;BME280;10371;49.042;8.002;2023-03-20T04:11:45;100217.13;;;9.74;100.00
20424;BME280;10371;49.042;8.002;2023-03-20T04:12:47;100219.84;;;9.72;100.00
20424;BME280;10371;49.042;8.002;2023-03-20T04:13:49;100220.69;;;9.73;100.00
20424;BME280;10371;49.042;8.002;2023-03-20T04:14:49;100220.16;;;9.68;100.00
20424;BME280;10371;49.042;8.002;2023-03-20T04:15:50;100220.16;;;9.68;100.00
20424;BME280;10371;49.042;8.002;2023-03-20T04:16:50;100227.84;;;9.69;100.00
20424;BME280;10371;49.042;8.002;2023-03-20T04:17:50;100228.78;;;9.68;100.00
20424;BME280;10371;49.042;8.002;2023-03-20T04:18:51;100226.09;;;9.70;100.00
20424;BME280;10371;49.042;8.002;2023-03-20T04:19:51;100228.56;;;9.71;100.00
20424;BME280;10371;49.042;8.002;2023-03-20T04:20:52;100235.53;;;9.71;100.00
20424;BME280;10371;49.042;8.002;2023-03-20T04:21:52;100231.06;;;9.73;100.00
20424;BME280;10371;49.042;8.002;2023-03-20T04:22:54;100232.72;;;9.74;100.00
20424;BME280;10371;49.042;8.002;2023-03-20T04:23:54;100230.03;;;9.75;100.00
20424;BME280;10371;49.042;8.002;2023-03-20T04:24:55;100231.59;;;9.78;100.00
20424;BME280;10371;49.042;8.002;2023-03-20T04:25:55;100222.09;;;9.77;100.00
20424;BME280;10371;49.042;8.002;2023-03-20T04:26:56;100225.31;;;9.80;100.00
20424;BME280;10371;49.042;8.002;2023-03-20T04:27:56;100220.47;;;9.76;100.00
20424;BME280;10371;49.042;8.002;2023-03-20T04:28:56;100222.09;;;9.77;100.00
20424;BME280;10371;49.042;8.002;2023-03-20T04:29:56;100218.47;;;9.79;100.00
20424;BME280;10371;49.042;8.002;2023-03-20T04:30:58;100215.03;;;9.79;100.00
20424;BME280;10371;49.042;8.002;2023-03-20T04:31:59;100212.53;;;9.77;100.00
20424;BME280;10371;49.042;8.002;2023-03-20T04:33:00;100216.09;;;9.76;100.00
20424;BME280;10371;49.042;8.002;2023-03-20T04:34:01;100212.44;;;9.79;100.00
20424;BME280;10371;49.042;8.002;2023-03-20T04:35:01;100217.50;;;9.80;100.00
20424;BME280;10371;49.042;8.002;2023-03-20T04:36:01;100213.69;;;9.73;100.00
20424;BME280;10371;49.042;8.002;2023-03-20T04:37:02;100212.66;;;9.76;100.00
20424;BME280;10371;49.042;8.002;2023-03-20T04:38:04;100213.25;;;9.79;100.00
20424;BME280;10371;49.042;8.002;2023-03-20T04:39:04;100212.22;;;9.82;100.00
20424;BME280;10371;49.042;8.002;2023-03-20T04:40:05;100211.63;;;9.78;100.00
20424;BME280;10371;49.042;8.002;2023-03-20T04:41:06;100220.09;;;9.80;100.00
20424;BME280;10371;49.042;8.002;2023-03-20T04:42:07;100213.56;;;9.75;100.00
20424;BME280;10371;49.042;8.002;2023-03-20T04:43:08;100220.84;;;9.82;100.00
20424;BME280;10371;49.042;8.002;2023-03-20T04:44:08;100218.75;;;9.88;100.00
20424;BME280;10371;49.042;8.002;2023-03-20T04:45:09;100216.25;;;9.86;100.00
20424;BME280;10371;49.042;8.002;2023-03-20T04:46:09;100217.09;;;9.87;100.00
20424;BME280;10371;49.042;8.002;2023-03-20T04:47:09;100224.25;;;9.83;100.00
20424;BME280;10371;49.042;8.002;2023-03-20T04:48:10;100214.91;;;9.80;100.00
20424;BME280;10371;49.042;8.002;2023-03-20T04:49:10;100213.25;;;9.79;100.00
20424;BME280;10371;49.042;8.002;2023-03-20T04:50:11;100222.84;;;9.79;100.00
20424;BME280;10371;49.042;8.002;2023-03-20T04:51:13;100226.16;;;9.81;100.00
20424;BME280;10371;49.042;8.002;2023-03-20T04:52:13;100222.00;;;9.78;100.00
20424;BME280;10371;49.042;8.002;2023-03-20T04:53:14;100220.34;;;9.77;100.00
20424;BME280;10371;49.042;8.002;2023-03-20T04:54:14;100230.31;;;9.83;100.00
20424;BME280;10371;49.042;8.002;2023-03-20T04:55:15;100227.00;;;9.81;100.00
20424;BME280;10371;49.042;8.002;2023-03-20T04:56:15;100233.63;;;9.85;100.00
20424;BME280;10371;49.042;8.002;2023-03-20T04:57:16;100231.75;;;9.88;100.00
20424;BME280;10371;49.042;8.002;2023-03-20T04:58:16;100236.94;;;9.88;100.00
20424;BME280;10371;49.042;8.002;2023-03-20T04:59:16;100242.25;;;9.86;100.00
20424;BME280;10371;49.042;8.002;2023-03-20T05:00:17;100234.56;;;9.84;100.00
20424;BME280;10371;49.042;8.002;2023-03-20T05:01:17;100231.97;;;9.84;100.00
20424;BME280;10371;49.042;8.002;2023-03-20T05:02:18;100234.56;;;9.84;100.00
20424;BME280;10371;49.042;8.002;2023-03-20T05:03:18;100230.19;;;9.85;100.00
20424;BME280;10371;49.042;8.002;2023-03-20T05:04:18;100225.94;;;9.84;100.00
20424;BME280;10371;49.042;8.002;2023-03-20T05:05:19;100230.09;;;9.87;100.00
20424;BME280;10371;49.042;8.002;2023-03-20T05:06:19;100225.72;;;9.87;100.00
20424;BME280;10371;49.042;8.002;2023-03-20T05:07:19;100232.56;;;9.88;100.00
20424;BME280;10371;49.042;8.002;2023-03-20T05:08:20;100231.75;;;9.88;100.00
20424;BME280;10371;49.042;8.002;2023-03-20T05:09:21;100228.41;;;9.85;100.00
20424;BME280;10371;49.042;8.002;2023-03-20T05:10:21;100231.97;;;9.84;100.00
20424;BME280;10371;49.042;8.002;2023-03-20T05:11:22;100231.97;;;9.84;100.00
20424;BME280;10371;49.042;8.002;2023-03-20T05:12:22;100225.31;;;9.80;100.00
20424;BME280;10371;49.042;8.002;2023-03-20T05:13:22;100235.31;;;9.87;100.00
20424;BME280;10371;49.042;8.002;2023-03-20T05:14:23;100235.72;;;9.80;100.00
20424;BME280;10371;49.042;8.002;2023-03-20T05:15:23;100229.47;;;9.83;100.00
20424;BME280;10371;49.042;8.002;2023-03-20T05:16:23;100224.25;;;9.83;100.00
20424;BME280;10371;49.042;8.002;2023-03-20T05:17:24;100235.31;;;9.87;100.00
20424;BME280;10371;49.042;8.002;2023-03-20T05:18:24;100237.91;;;9.87;100.00
20424;BME280;10371;49.042;8.002;2023-03-20T05:19:24;100233.75;;;9.84;100.00
20424;BME280;10371;49.042;8.002;2023-03-20T05:20:25;100229.25;;;9.86;100.00
20424;BME280;10371;49.042;8.002;2023-03-20T05:21:26;100234.44;;;9.86;100.00
20424;BME280;10371;49.042;8.002;2023-03-20T05:22:26;100236.00;;;9.89;100.00
20424;BME280;10371;49.042;8.002;2023-03-20T05:23:26;100229.25;;;9.86;100.00
20424;BME280;10371;49.042;8.002;2023-03-20T05:24:27;100231.16;;;9.84;100.00
20424;BME280;10371;49.042;8.002;2023-03-20T05:25:28;100234.78;;;9.81;100.00
20424;BME280;10371;49.042;8.002;2023-03-20T05:26:28;100229.59;;;9.81;100.00
20424;BME280;10371;49.042;8.002;2023-03-20T05:27:28;100227.00;;;9.81;100.00
20424;BME280;10371;49.042;8.002;2023-03-20T05:28:29;100232.28;;;9.80;100.00
20424;BME280;10371;49.042;8.002;2023-03-20T05:29:30;100228.94;;;9.91;100.00
20424;BME280;10371;49.042;8.002;2023-03-20T05:30:30;100225.78;;;9.98;100.00
20424;BME280;10371;49.042;8.002;2023-03-20T05:31:31;100237.06;;;10.10;100.00
20424;BME280;10371;49.042;8.002;2023-03-20T05:32:31;100235.81;;;10.16;100.00
20424;BME280;10371;49.042;8.002;2023-03-20T05:33:31;100232.59;;;10.36;100.00
20424;BME280;10371;49.042;8.002;2023-03-20T05:34:32;100235.28;;;10.47;100.00
20424;BME280;10371;49.042;8.002;2023-03-20T05:35:32;100236.63;;;10.64;100.00
20424;BME280;10371;49.042;8.002;2023-03-20T05:36:32;100241.38;;;10.70;100.00
20424;BME280;10371;49.042;8.002;2023-03-20T05:37:32;100229.06;;;10.72;100.00
20424;BME280;10371;49.042;8.002;2023-03-20T05:38:33;100238.53;;;10.73;100.00
20424;BME280;10371;49.042;8.002;2023-03-20T05:39:33;100235.44;;;10.68;100.00
20424;BME280;10371;49.042;8.002;2023-03-20T05:40:33;100234.94;;;10.63;100.00
20424;BME280;10371;49.042;8.002;2023-03-20T05:41:34;100228.56;;;10.56;100.00
20424;BME280;10371;49.042;8.002;2023-03-20T05:42:34;100235.50;;;10.56;100.00
20424;BME280;10371;49.042;8.002;2023-03-20T05:43:35;100234.19;;;10.50;100.00
20424;BME280;10371;49.042;8.002;2023-03-20T05:44:35;100234.81;;;10.54;100.00
20424;BME280;10371;49.042;8.002;2023-03-20T05:45:35;100237.53;;;10.52;100.00
20424;BME280;10371;49.042;8.002;2023-03-20T05:46:36;100243.19;;;10.46;100.00
20424;BME280;10371;49.042;8.002;2023-03-20T05:47:37;100243.41;;;10.43;100.00
20424;BME280;10371;49.042;8.002;2023-03-20T05:48:37;100249.53;;;10.42;100.00
20424;BME280;10371;49.042;8.002;2023-03-20T05:49:37;100250.50;;;10.41;100.00
20424;BME280;10371;49.042;8.002;2023-03-20T05:50:38;100253.00;;;10.42;100.00
20424;BME280;10371;49.042;8.002;2023-03-20T05:51:38;100248.34;;;10.35;100.00
20424;BME280;10371;49.042;8.002;2023-03-20T05:52:38;100251.91;;;10.34;100.00
20424;BME280;10371;49.042;8.002;2023-03-20T05:53:39;100249.31;;;10.34;100.00
20424;BME280;10371;49.042;8.002;2023-03-20T05:54:39;100252.59;;;10.36;100.00
20424;BME280;10371;49.042;8.002;2023-03-20T05:55:40;100248.44;;;10.33;100.00
20424;BME280;10371;49.042;8.002;2023-03-20T05:56:41;100248.44;;;10.33;100.00
20424;BME280;10371;49.042;8.002;2023-03-20T05:57:41;100255.31;;;10.34;100.00